Tri-Cities Airport Airport (TRI)

 

Airport Diagram
Current Weather/Forecast (MVFR Conditions)
METAR KTRI 260515Z 35008KT 10SM SCT013 BKN023 OVC033 10/08 A3001 RMK AO2 T01000078
TAF KTRI 260329Z 2603/2624 VRB03KT 2SM BR VCSH OVC030 TEMPO 2603/2606 1/2SM SHRA OVC025 FM260600 35005KT 4SM BR OVC030 FM261300 02006KT P6SM BKN050

All Charts
General
Chart Name Download
AIRPORT DIAGRAM
TAKEOFF MINIMUMS
ALTERNATE MINIMUMS

Departures
Chart Name Download
KINGS ONE
KINGS ONE, CONT.1

Approaches
Chart Name Download
ILS OR LOC RWY 05
ILS OR LOC RWY 23
ILS RWY 23 (SA CAT I)
ILS RWY 23 (CAT II)
RNAV (GPS) RWY 05
RNAV (GPS) RWY 09
RNAV (GPS) RWY 23
RNAV (GPS) RWY 27


Inbound Traffic (Arrivals)

No inbound traffic.


Outbound Traffic (Departures)

No outbound traffic.